Liverpool, NY (13090)

6:44 AM EDT on July 05, 2015 (GMT -0400)
Merrill Farms | | Change Station
CLOSE
Current Station
Personal Weather Station
Location: Liverpool, NY
Elevation: 436 ft
Nearby Weather Stations

Elev 436 ft 43.13 °N, 76.17 °W | Updated 1 second ago

Clear
Clear
59.5 °F
Feels Like 59.5 °F
N
0.0
Wind Variable Wind from South
Gusts 0.0 mph

Today
High -- | Low -- °F
--% Chance of Precip.
Yesterday
High -- | Low -- °F
Precip. -- in
5:31 AM 8:47 PM
Waning Gibbous, 86% visible
Pressure 30.06 in
Visibility 6.0 miles
Clouds Few 9000 ft
Dew Point 59 °F
Humidity 99%
Rainfall 0.00 in
Snow Depth Not available.
UV 0 out of 12
Pollen .80 out of 12
Air Quality Not available.
Flu Activity Not available.
METAR KSYR 050954Z 00000KT 6SM BR FEW090 14/14 A3007 RMK AO2 VIS 2 NW SLP178 T01440139 $

More Conditions Fewer Conditions

Pressure 30.06 in
Visibility 6.0 miles
Clouds Few 9000 ft
Dew Point 59 °F
Humidity 99%
Rainfall 0.00 in
Snow Depth Not available.
UV 0 out of 12
Pollen .80 out of 12
Air Quality Not available.
Flu Activity Not available.
METAR KSYR 050954Z 00000KT 6SM BR FEW090 14/14 A3007 RMK AO2 VIS 2 NW SLP178 T01440139 $

More Conditions Fewer Conditions

10-Day Weather Forecast

×

Almanac

Astronomy

Jul. 05, 2015 Rise Set
Actual Time
Civil Twilight
Nautical Twilight
Astronomical Twilight
Moon
Length of Visible Light
Length of Day
Tomorrow will be .
, % of the Moon is Illuminated

Today's Extremes

State Highs State Lows

Community

WunderPhotos

Upload Photos

1,835,229 photos uploaded!

WunderBlogs® & News

Nearby

Air Quality

  Air Quality AQ Index Pollutant
Not available.

Snow Depth

Station Depth Elevation

Earthquake Activity

City Distance Mag. Time & Date
Minimum magnitude displayed is 2.5.

Coastal Water Temperatures

Place Temperature

Stations

Nearby Weather Stations

Station Location Temp. Windchill Dew Point Humidity Wind Precip. Elev Updated Type